Time;durP1;ratioP1;P1;durP2;ratioP2;P2;SDS_P1;SDS_P2;PMS_P1;PMS_P2;Temp;Humidity;BMP_temperature;BMP_pressure;BME280_temperature;BME280_humidity;BME280_pressure;Samples;Min_cycle;Max_cycle;Signal;HPM_P1;HPM_P2
2022/11/23 00:01:30;;;;;;;10.20;3.25;;;9.50;99.90;;;;;;5054380;28;20433;-90
2022/11/23 00:04:01;;;;;;;11.63;2.83;;;9.60;99.90;;;;;;5055560;28;20696;-89
2022/11/23 00:06:28;;;;;;;9.53;3.30;;;9.60;99.90;;;;;;5055412;28;20677;-89
2022/11/23 00:08:55;;;;;;;9.20;2.27;;;9.40;99.90;;;;;;5055202;28;20198;-90
2022/11/23 00:11:23;;;;;;;14.20;2.63;;;9.30;99.90;;;;;;5057060;28;20214;-90
2022/11/23 00:13:51;;;;;;;10.37;2.63;;;9.30;99.90;;;;;;5055704;28;20225;-90
2022/11/23 00:16:22;;;;;;;8.03;2.33;;;9.30;99.90;;;;;;5055043;28;20650;-89
2022/11/23 00:18:53;;;;;;;11.97;2.27;;;9.20;99.90;;;;;;5055438;28;20202;-89
2022/11/23 00:21:20;;;;;;;6.60;2.50;;;9.20;99.90;;;;;;5055039;28;20213;-89
2022/11/23 00:23:48;;;;;;;10.87;2.30;;;9.30;99.90;;;;;;5054397;28;20542;-90
2022/11/23 00:26:15;;;;;;;8.17;2.47;;;9.20;99.90;;;;;;5054947;28;20198;-88
2022/11/23 00:28:43;;;;;;;9.23;2.30;;;9.30;99.90;;;;;;5055005;28;20441;-88
2022/11/23 00:31:13;;;;;;;6.70;2.00;;;9.30;99.90;;;;;;5054938;28;20213;-88
2022/11/23 00:33:42;;;;;;;12.43;3.07;;;9.20;99.90;;;;;;5054782;28;20245;-89
2022/11/23 00:36:11;;;;;;;9.17;2.33;;;9.10;99.90;;;;;;5054902;28;20211;-89
2022/11/23 00:38:40;;;;;;;11.60;2.37;;;9.20;99.90;;;;;;5054182;28;20221;-90
2022/11/23 00:41:10;;;;;;;10.83;2.47;;;9.20;99.90;;;;;;5054580;28;20272;-90
2022/11/23 00:43:38;;;;;;;10.37;2.77;;;9.20;99.90;;;;;;5054282;28;20201;-90
2022/11/23 00:46:07;;;;;;;8.93;2.40;;;9.10;99.90;;;;;;5054004;28;20202;-90
2022/11/23 00:48:34;;;;;;;7.37;2.57;;;9.10;99.90;;;;;;5054236;28;20638;-90
2022/11/23 00:51:08;;;;;;;10.40;2.20;;;9.10;99.90;;;;;;5054551;28;20646;-90
2022/11/23 00:53:39;;;;;;;9.63;2.47;;;9.10;99.90;;;;;;5056315;28;20233;-90
2022/11/23 00:56:06;;;;;;;11.33;2.87;;;9.10;99.90;;;;;;5054641;28;20654;-89
2022/11/23 00:58:33;;;;;;;13.38;3.22;;;9.10;99.90;;;;;;5053887;28;20441;-89
2022/11/23 01:01:02;;;;;;;9.20;2.70;;;9.20;99.90;;;;;;5054420;28;20208;-90
2022/11/23 01:03:30;;;;;;;10.07;2.47;;;9.20;99.90;;;;;;5054350;28;20206;-89
2022/11/23 01:06:08;;;;;;;9.20;2.30;;;9.20;99.90;;;;;;5054056;28;20210;-89
2022/11/23 01:08:35;;;;;;;10.77;2.57;;;9.20;99.90;;;;;;5054334;28;20575;-88
2022/11/23 01:11:06;;;;;;;9.53;2.33;;;9.30;99.90;;;;;;5054567;28;20288;-89
2022/11/23 01:13:34;;;;;;;15.13;2.60;;;9.30;99.90;;;;;;5053873;28;20237;-88
2022/11/23 01:16:03;;;;;;;9.47;2.10;;;9.30;99.90;;;;;;5054280;28;20207;-89
2022/11/23 01:18:30;;;;;;;14.23;2.57;;;9.30;99.90;;;;;;5054229;28;20215;-89
2022/11/23 01:21:00;;;;;;;13.30;2.53;;;9.30;99.90;;;;;;5054444;28;20213;-89
2022/11/23 01:23:30;;;;;;;16.60;3.00;;;9.20;99.90;;;;;;5054294;28;20202;-88
2022/11/23 01:25:57;;;;;;;9.00;2.30;;;9.30;99.90;;;;;;5053637;28;20211;-88
2022/11/23 01:28:25;;;;;;;12.35;2.90;;;9.30;99.90;;;;;;5053729;28;20429;-90
2022/11/23 01:30:51;;;;;;;12.07;2.63;;;9.40;99.90;;;;;;5054165;28;20199;-88
2022/11/23 01:33:18;;;;;;;11.23;2.00;;;9.30;99.90;;;;;;5054398;28;20214;-89
2022/11/23 01:35:45;;;;;;;8.53;1.97;;;9.40;99.90;;;;;;5054896;28;20206;-89
2022/11/23 01:38:12;;;;;;;9.90;2.60;;;9.40;99.90;;;;;;5053583;28;20217;-88
2022/11/23 01:40:43;;;;;;;11.33;2.50;;;9.40;99.90;;;;;;5053338;28;20198;-89
2022/11/23 01:43:15;;;;;;;10.87;2.27;;;9.40;99.90;;;;;;5053957;28;20638;-90
2022/11/23 01:45:44;;;;;;;6.47;1.90;;;9.40;99.90;;;;;;5053860;28;20202;-90
2022/11/23 01:48:18;;;;;;;7.53;2.57;;;9.50;99.90;;;;;;5053537;28;20236;-89
2022/11/23 01:50:50;;;;;;;11.90;3.00;;;9.50;99.90;;;;;;5052980;28;20306;-89
2022/11/23 01:53:17;;;;;;;11.30;2.23;;;9.40;99.90;;;;;;5053227;28;20234;-89
2022/11/23 01:55:49;;;;;;;9.17;2.30;;;9.40;99.90;;;;;;5053611;28;20217;-88
2022/11/23 01:58:20;;;;;;;10.13;2.20;;;9.50;99.90;;;;;;5052540;28;20206;-89
2022/11/23 02:00:49;;;;;;;11.57;3.00;;;9.50;99.90;;;;;;5053505;28;20203;-91
2022/11/23 02:03:17;;;;;;;7.77;2.70;;;9.50;99.90;;;;;;5053438;28;20241;-90
2022/11/23 02:05:47;;;;;;;7.10;1.83;;;9.50;99.90;;;;;;5053324;28;20198;-89
2022/11/23 02:08:18;;;;;;;12.93;2.47;;;9.50;99.90;;;;;;5053593;28;20203;-90
2022/11/23 02:10:48;;;;;;;10.00;2.37;;;9.60;99.90;;;;;;5039557;28;20206;-89
2022/11/23 02:13:18;;;;;;;10.40;2.03;;;9.50;99.90;;;;;;5053427;28;20234;-90
2022/11/23 02:15:46;;;;;;;6.23;2.50;;;9.50;99.90;;;;;;5055862;28;20197;-89
2022/11/23 02:18:16;;;;;;;9.43;2.47;;;9.50;99.90;;;;;;5054784;28;20212;-89
2022/11/23 02:20:47;;;;;;;11.33;1.97;;;9.50;99.90;;;;;;5053246;28;20216;-89
2022/11/23 02:23:24;;;;;;;13.50;2.73;;;9.40;99.90;;;;;;5053103;28;20210;-90
2022/11/23 02:26:13;;;;;;;11.47;2.27;;;9.30;99.90;;;;;;5053360;28;20217;-89
2022/11/23 02:28:44;;;;;;;12.07;3.50;;;9.20;99.90;;;;;;5051780;28;20433;-89
2022/11/23 02:31:11;;;;;;;7.47;3.00;;;9.20;99.90;;;;;;5052247;28;20195;-89
2022/11/23 02:33:41;;;;;;;9.13;2.40;;;9.20;99.90;;;;;;5052287;28;20234;-89
2022/11/23 02:36:36;;;;;;;11.77;3.00;;;9.00;99.90;;;;;;5053350;28;20645;-90
2022/11/23 02:39:07;;;;;;;6.30;2.13;;;8.90;99.90;;;;;;5052956;28;20268;-90
2022/11/23 02:41:38;;;;;;;12.13;2.43;;;8.90;99.90;;;;;;5052789;28;20217;-89
2022/11/23 02:44:19;;;;;;;12.57;3.03;;;8.90;99.90;;;;;;5053056;28;20221;-89
2022/11/23 02:46:46;;;;;;;10.80;2.67;;;8.90;99.90;;;;;;5051666;28;20194;-90
2022/11/23 02:49:13;;;;;;;15.63;2.57;;;8.90;99.90;;;;;;5052372;28;20297;-90
2022/11/23 02:51:39;;;;;;;11.63;2.80;;;8.80;99.90;;;;;;5048962;28;20207;-90
2022/11/23 02:54:07;;;;;;;12.40;3.10;;;8.80;99.90;;;;;;5050925;28;20241;-90
2022/11/23 02:56:36;;;;;;;8.60;2.53;;;8.80;99.90;;;;;;5036062;28;20206;-89
2022/11/23 02:59:02;;;;;;;11.77;2.60;;;8.80;99.90;;;;;;5057341;28;20217;-89
2022/11/23 03:01:30;;;;;;;11.23;2.77;;;8.90;99.90;;;;;;5053469;28;20206;-89
2022/11/23 03:03:57;;;;;;;8.23;2.43;;;8.90;99.90;;;;;;5051998;28;20206;-89
2022/11/23 03:06:26;;;;;;;13.87;3.00;;;9.00;99.90;;;;;;5052311;28;20692;-90
2022/11/23 03:08:54;;;;;;;16.73;3.10;;;9.00;99.90;;;;;;5023016;28;20214;-90
2022/11/23 03:11:25;;;;;;;9.97;2.60;;;9.00;99.90;;;;;;5037297;28;20206;-90
2022/11/23 03:13:53;;;;;;;11.53;2.40;;;9.00;99.90;;;;;;5056693;28;20234;-90
2022/11/23 03:16:21;;;;;;;20.93;3.10;;;9.00;99.90;;;;;;5056042;28;20205;-90
2022/11/23 03:18:49;;;;;;;17.23;3.43;;;9.00;99.90;;;;;;5056460;28;20206;-90
2022/11/23 03:21:22;;;;;;;12.17;2.53;;;9.00;99.90;;;;;;5056136;28;20210;-90
2022/11/23 03:23:49;;;;;;;16.00;2.87;;;9.00;99.90;;;;;;5056366;28;20202;-89
2022/11/23 03:26:17;;;;;;;9.07;2.80;;;9.10;99.90;;;;;;5056298;28;20210;-90
2022/11/23 03:28:44;;;;;;;17.33;2.90;;;9.10;99.90;;;;;;5056386;28;20217;-90
2022/11/23 03:31:12;;;;;;;11.50;2.40;;;9.00;99.90;;;;;;5055776;28;20563;-89
2022/11/23 03:33:40;;;;;;;10.57;2.03;;;9.10;99.90;;;;;;5056144;28;20238;-89
2022/11/23 03:36:07;;;;;;;16.27;3.13;;;9.10;99.90;;;;;;5055937;28;20202;-89
2022/11/23 03:38:35;;;;;;;11.43;2.90;;;9.10;99.90;;;;;;5057211;28;20221;-90
2022/11/23 03:41:03;;;;;;;8.77;2.07;;;9.10;99.90;;;;;;5060079;28;20676;-89
2022/11/23 03:43:32;;;;;;;13.83;2.60;;;9.10;99.90;;;;;;5056340;28;20566;-89
2022/11/23 03:45:59;;;;;;;8.00;2.50;;;9.00;99.90;;;;;;5055884;28;20202;-89
2022/11/23 03:48:28;;;;;;;13.07;2.77;;;9.00;99.90;;;;;;5055795;28;20237;-88
2022/11/23 03:50:57;;;;;;;10.90;2.60;;;9.10;99.90;;;;;;5056240;28;20190;-90
2022/11/23 03:53:25;;;;;;;12.73;2.83;;;9.00;99.90;;;;;;5055440;28;20234;-89
2022/11/23 03:55:54;;;;;;;11.90;2.90;;;9.00;99.90;;;;;;5055624;28;20815;-89
2022/11/23 03:58:22;;;;;;;12.83;2.83;;;9.00;99.90;;;;;;5055066;28;20202;-90
2022/11/23 04:00:49;;;;;;;12.60;2.80;;;9.00;99.90;;;;;;5054953;28;20202;-89
2022/11/23 04:03:16;;;;;;;12.80;2.60;;;9.10;99.90;;;;;;5055710;28;20214;-89
2022/11/23 04:05:45;;;;;;;9.77;2.63;;;9.00;99.90;;;;;;5055249;28;20203;-90
2022/11/23 04:08:11;;;;;;;11.77;2.70;;;9.10;99.90;;;;;;5055943;28;20206;-89
2022/11/23 04:10:38;;;;;;;11.57;2.63;;;9.10;99.90;;;;;;5055803;28;20559;-89
2022/11/23 04:13:05;;;;;;;11.37;2.40;;;9.10;99.90;;;;;;5055405;28;20222;-89
2022/11/23 04:15:33;;;;;;;11.10;3.10;;;9.10;99.90;;;;;;5055079;28;20297;-90
2022/11/23 04:18:00;;;;;;;9.07;2.60;;;9.10;99.90;;;;;;5045995;28;20214;-91
2022/11/23 04:20:27;;;;;;;10.07;3.03;;;9.10;99.90;;;;;;5055479;28;20195;-89
2022/11/23 04:22:56;;;;;;;10.93;2.47;;;9.00;99.90;;;;;;5054897;28;20241;-88
2022/11/23 04:25:23;;;;;;;17.67;3.75;;;9.00;99.90;;;;;;5054477;28;20792;-88
2022/11/23 04:27:50;;;;;;;14.93;3.20;;;9.10;99.90;;;;;;5054824;28;20207;-89
2022/11/23 04:30:16;;;;;;;12.97;3.57;;;9.10;99.90;;;;;;5054298;28;20202;-88
2022/11/23 04:32:44;;;;;;;12.77;3.20;;;9.10;99.90;;;;;;5054336;28;20206;-89
2022/11/23 04:35:11;;;;;;;10.77;2.73;;;9.00;99.90;;;;;;5054445;28;20234;-89
2022/11/23 04:37:38;;;;;;;16.00;3.40;;;9.10;99.90;;;;;;5055002;28;20202;-89
2022/11/23 04:40:08;;;;;;;15.10;3.93;;;9.00;99.90;;;;;;5054681;28;20198;-89
2022/11/23 04:42:35;;;;;;;9.23;2.87;;;8.90;99.90;;;;;;5054290;28;20210;-87
2022/11/23 04:45:03;;;;;;;18.10;3.13;;;8.90;99.90;;;;;;5054819;28;20202;-89
2022/11/23 04:47:29;;;;;;;10.23;2.23;;;8.90;99.90;;;;;;5054787;28;20560;-89
2022/11/23 04:49:57;;;;;;;11.70;2.60;;;8.90;99.90;;;;;;5054725;28;20662;-89
2022/11/23 04:52:24;;;;;;;16.93;3.47;;;8.90;99.90;;;;;;5054639;28;20194;-89
2022/11/23 04:54:51;;;;;;;11.82;3.47;;;8.90;99.90;;;;;;5053488;28;20453;-89
2022/11/23 04:57:19;;;;;;;13.07;2.77;;;9.00;99.90;;;;;;5054429;28;20223;-88
2022/11/23 04:59:47;;;;;;;18.17;3.00;;;9.00;99.90;;;;;;5055109;28;20202;-88
2022/11/23 05:02:14;;;;;;;12.30;2.53;;;9.00;99.90;;;;;;5057311;28;20213;-87
2022/11/23 05:04:41;;;;;;;13.43;3.50;;;8.90;99.90;;;;;;5053437;28;20205;-88
2022/11/23 05:07:08;;;;;;;12.63;2.53;;;9.00;99.90;;;;;;5054174;28;20187;-89
2022/11/23 05:09:34;;;;;;;14.60;3.13;;;9.00;99.90;;;;;;5035967;28;20202;-87
2022/11/23 05:12:01;;;;;;;10.33;2.83;;;9.00;99.90;;;;;;5054013;28;20209;-89
2022/11/23 05:14:30;;;;;;;10.33;2.77;;;9.00;99.90;;;;;;5054242;28;20238;-88
2022/11/23 05:16:58;;;;;;;18.77;3.27;;;9.00;99.90;;;;;;5054527;28;20191;-88
2022/11/23 05:19:25;;;;;;;13.80;2.50;;;8.90;99.90;;;;;;5054842;28;20186;-88
2022/11/23 05:21:52;;;;;;;10.83;2.43;;;8.90;99.90;;;;;;5057845;28;20205;-89
2022/11/23 05:24:19;;;;;;;13.27;2.90;;;8.80;99.90;;;;;;5054171;28;20198;-90
2022/11/23 05:26:47;;;;;;;6.30;2.47;;;8.80;99.90;;;;;;5052917;28;20202;-88
2022/11/23 05:29:14;;;;;;;11.47;2.97;;;8.80;99.90;;;;;;5053901;28;20211;-89
2022/11/23 05:31:42;;;;;;;14.67;3.70;;;8.70;99.90;;;;;;5053794;28;20206;-89
2022/11/23 05:34:09;;;;;;;12.37;2.77;;;8.70;99.90;;;;;;5053092;28;20716;-90
2022/11/23 05:36:35;;;;;;;10.63;2.30;;;8.60;99.90;;;;;;5036433;28;20564;-88
2022/11/23 05:39:02;;;;;;;12.93;2.87;;;8.50;99.90;;;;;;5053840;28;20206;-90
2022/11/23 05:41:29;;;;;;;13.07;2.67;;;8.50;99.90;;;;;;5053890;28;20199;-89
2022/11/23 05:43:58;;;;;;;7.17;2.30;;;8.50;99.90;;;;;;5053496;28;20237;-89
2022/11/23 05:46:25;;;;;;;15.87;3.27;;;8.50;99.90;;;;;;5053462;28;20661;-88
2022/11/23 05:48:53;;;;;;;17.30;3.07;;;8.50;99.90;;;;;;5053627;28;20225;-89
2022/11/23 05:51:20;;;;;;;8.60;2.80;;;8.40;99.90;;;;;;5053887;28;20221;-88
2022/11/23 05:53:48;;;;;;;13.55;3.22;;;8.40;99.90;;;;;;5051974;28;20433;-88
2022/11/23 05:56:16;;;;;;;16.50;3.03;;;8.40;99.90;;;;;;5053618;28;20198;-88
2022/11/23 05:58:44;;;;;;;16.70;2.93;;;8.40;99.90;;;;;;5053596;28;20202;-88
2022/11/23 06:01:11;;;;;;;12.57;2.67;;;8.20;99.90;;;;;;5047602;28;20203;-88
2022/11/23 06:03:38;;;;;;;13.73;3.03;;;8.10;99.90;;;;;;5033368;28;20207;-89
2022/11/23 06:06:07;;;;;;;7.80;2.17;;;8.10;99.90;;;;;;5051120;28;20210;-88
2022/11/23 06:08:34;;;;;;;18.37;3.20;;;8.00;99.90;;;;;;5054251;28;20218;-88
2022/11/23 06:11:01;;;;;;;10.97;2.50;;;7.90;99.90;;;;;;5054111;28;20210;-88
2022/11/23 06:13:27;;;;;;;9.30;3.00;;;7.80;99.90;;;;;;5053242;28;20272;-88
2022/11/23 06:15:54;;;;;;;16.97;2.67;;;7.80;99.90;;;;;;5052356;28;20724;-89
2022/11/23 06:18:21;;;;;;;11.17;3.23;;;7.60;99.90;;;;;;5052947;28;20567;-89
2022/11/23 06:20:48;;;;;;;9.07;2.47;;;7.50;99.90;;;;;;5052421;28;20585;-88
2022/11/23 06:23:19;;;;;;;13.07;2.80;;;7.50;99.90;;;;;;5036150;28;20217;-88
2022/11/23 06:25:46;;;;;;;10.87;3.17;;;7.60;99.90;;;;;;5052576;28;20569;-88
2022/11/23 06:28:14;;;;;;;9.07;2.50;;;7.60;99.90;;;;;;5052617;28;20206;-88
2022/11/23 06:30:41;;;;;;;17.03;3.80;;;7.50;99.90;;;;;;5052542;28;20202;-88
2022/11/23 06:33:09;;;;;;;16.70;3.27;;;7.50;99.90;;;;;;5053232;28;20206;-87
2022/11/23 06:35:35;;;;;;;14.60;3.87;;;7.50;99.90;;;;;;5052559;28;20237;-89
2022/11/23 06:38:02;;;;;;;15.90;3.20;;;7.40;99.90;;;;;;5052869;28;20202;-89
2022/11/23 06:40:30;;;;;;;10.97;3.20;;;7.40;99.90;;;;;;5052704;28;20198;-88
2022/11/23 06:43:00;;;;;;;11.77;2.63;;;7.40;99.90;;;;;;5052547;28;20202;-87
2022/11/23 06:45:27;;;;;;;8.03;2.70;;;7.30;99.90;;;;;;5055457;28;20198;-90
2022/11/23 06:47:55;;;;;;;12.73;3.57;;;7.40;99.90;;;;;;5060328;28;20211;-89
2022/11/23 06:50:22;;;;;;;19.07;3.77;;;7.30;99.90;;;;;;5057258;28;20253;-90
2022/11/23 06:52:53;;;;;;;14.93;3.27;;;7.40;99.90;;;;;;5056377;28;20230;-89
2022/11/23 06:55:20;;;;;;;12.10;2.93;;;7.40;99.90;;;;;;5055887;28;20226;-88
2022/11/23 06:57:48;;;;;;;13.73;3.07;;;7.30;99.90;;;;;;5069052;28;20278;-88
2022/11/23 07:00:16;;;;;;;13.30;2.93;;;7.20;99.90;;;;;;5063452;28;20653;-87
2022/11/23 07:02:43;;;;;;;12.27;3.10;;;7.30;99.90;;;;;;5062677;28;20198;-90
2022/11/23 07:05:10;;;;;;;9.00;2.50;;;7.20;99.90;;;;;;5055917;28;20202;-87
2022/11/23 07:07:36;;;;;;;21.27;3.60;;;7.10;99.90;;;;;;5055630;28;20206;-89
2022/11/23 07:10:04;;;;;;;15.07;3.50;;;7.20;99.90;;;;;;5055501;28;20201;-90
2022/11/23 07:12:32;;;;;;;11.37;3.07;;;7.20;99.90;;;;;;5055799;28;20203;-90
2022/11/23 07:15:00;;;;;;;7.53;2.87;;;7.20;99.90;;;;;;5055697;28;20241;-88
2022/11/23 07:17:27;;;;;;;13.40;2.87;;;7.10;99.90;;;;;;5055990;28;20195;-88
2022/11/23 07:19:54;;;;;;;16.47;3.50;;;7.00;99.90;;;;;;5056969;28;20207;-92
2022/11/23 07:22:20;;;;;;;9.67;2.77;;;6.90;99.90;;;;;;5057852;28;20203;-92
2022/11/23 07:24:47;;;;;;;13.27;3.20;;;7.00;99.90;;;;;;5056875;28;20198;-90
2022/11/23 07:27:16;;;;;;;16.10;3.33;;;6.90;99.90;;;;;;5055732;28;20204;-90
2022/11/23 07:29:43;;;;;;;10.67;2.80;;;7.00;99.90;;;;;;5068433;28;20214;-89
2022/11/23 07:32:13;;;;;;;15.97;3.73;;;7.00;99.90;;;;;;5058411;28;20195;-88
2022/11/23 07:34:40;;;;;;;17.70;3.10;;;7.00;99.90;;;;;;5055649;28;20215;-91
2022/11/23 07:37:07;;;;;;;17.70;2.93;;;7.00;99.90;;;;;;5055701;28;20206;-88
2022/11/23 07:39:34;;;;;;;12.93;2.83;;;6.90;99.90;;;;;;5055305;28;20393;-92
2022/11/23 07:42:01;;;;;;;13.70;3.20;;;6.80;99.90;;;;;;5055650;28;20206;-88
2022/11/23 07:44:28;;;;;;;13.17;2.47;;;6.90;99.90;;;;;;5055663;28;20209;-89
2022/11/23 07:46:55;;;;;;;12.37;2.67;;;6.90;99.90;;;;;;5055860;28;20206;-86
2022/11/23 07:49:23;;;;;;;16.23;3.03;;;6.90;99.90;;;;;;5055302;28;20226;-88
2022/11/23 07:51:49;;;;;;;17.80;4.43;;;6.90;99.90;;;;;;5053689;28;20433;-89
2022/11/23 07:54:16;;;;;;;10.57;3.60;;;7.10;99.90;;;;;;5055907;28;20218;-88
2022/11/23 07:56:43;;;;;;;15.47;3.13;;;7.10;99.90;;;;;;5054077;28;20202;-88
2022/11/23 07:59:11;;;;;;;16.43;3.77;;;7.20;99.90;;;;;;5056245;28;20199;-88
2022/11/23 08:01:38;;;;;;;11.13;3.63;;;7.20;99.90;;;;;;5056982;28;20210;-90
2022/11/23 08:04:05;;;;;;;12.87;3.60;;;7.30;99.90;;;;;;5056619;28;20240;-88
2022/11/23 08:06:33;;;;;;;21.73;3.53;;;7.30;99.90;;;;;;5059535;28;20218;-89
2022/11/23 08:09:00;;;;;;;13.23;3.83;;;7.40;99.90;;;;;;5070176;28;20202;-92
2022/11/23 08:11:28;;;;;;;8.23;3.20;;;7.40;99.90;;;;;;5069079;28;20194;-92
2022/11/23 08:13:55;;;;;;;13.77;4.03;;;7.50;99.90;;;;;;5067023;28;20210;-90
2022/11/23 08:16:22;;;;;;;10.50;3.50;;;7.50;99.90;;;;;;5067525;28;20223;-90
2022/11/23 08:18:49;;;;;;;9.33;3.03;;;7.50;99.90;;;;;;5067899;28;20210;-91
2022/11/23 08:21:17;;;;;;;11.70;3.03;;;7.50;99.90;;;;;;5068877;28;20260;-92
2022/11/23 08:23:46;;;;;;;17.53;3.63;;;7.60;99.90;;;;;;5069219;28;20207;-91
2022/11/23 08:26:13;;;;;;;17.90;3.37;;;7.70;99.90;;;;;;5055754;28;20195;-92
2022/11/23 08:28:40;;;;;;;15.93;3.40;;;7.80;99.90;;;;;;5054601;28;20206;-94
2022/11/23 08:31:07;;;;;;;14.63;3.53;;;7.80;99.90;;;;;;5054753;28;20205;-89
2022/11/23 08:33:34;;;;;;;15.23;2.83;;;7.90;99.90;;;;;;5054264;28;20213;-92
2022/11/23 08:36:05;;;;;;;55.93;8.73;;;8.10;99.90;;;;;;5054833;28;20226;-91
2022/11/23 08:38:32;;;;;;;11.07;3.70;;;8.10;99.90;;;;;;5054097;28;20677;-90
2022/11/23 08:41:00;;;;;;;12.33;3.00;;;8.10;99.90;;;;;;5063093;28;20210;-91
2022/11/23 08:43:27;;;;;;;11.80;3.50;;;8.20;99.90;;;;;;5053525;28;20218;-91
2022/11/23 08:45:54;;;;;;;14.00;3.17;;;8.30;99.90;;;;;;5056833;28;20654;-91
2022/11/23 08:48:21;;;;;;;52.60;8.80;;;8.30;99.90;;;;;;5062046;28;20473;-90
2022/11/23 08:50:48;;;;;;;16.60;4.30;;;8.30;99.90;;;;;;5057621;28;20456;-90
2022/11/23 08:53:15;;;;;;;18.90;3.90;;;8.40;99.90;;;;;;5063566;28;20232;-90
2022/11/23 08:55:42;;;;;;;348.00;40.77;;;8.40;99.90;;;;;;5060034;28;20229;-92
2022/11/23 08:58:10;;;;;;;121.80;17.23;;;8.40;99.90;;;;;;5057069;28;20203;-90
2022/11/23 09:00:37;;;;;;;5.57;2.50;;;8.40;99.90;;;;;;5064123;28;20189;-95
2022/11/23 09:03:04;;;;;;;7.27;2.70;;;8.40;99.90;;;;;;5053550;28;20662;-93
2022/11/23 09:05:31;;;;;;;13.97;2.87;;;8.40;99.90;;;;;;5035233;28;20199;-89
2022/11/23 09:08:00;;;;;;;10.47;2.67;;;8.50;99.90;;;;;;5053070;28;20206;-90
2022/11/23 09:10:27;;;;;;;7.50;2.40;;;8.50;99.90;;;;;;5053730;28;20202;-91
2022/11/23 09:12:54;;;;;;;11.27;2.77;;;8.40;99.90;;;;;;5053986;28;20684;-92
2022/11/23 09:15:23;;;;;;;6.43;2.37;;;8.30;99.90;;;;;;5053038;28;20299;-94
2022/11/23 09:17:53;;;;;;;7.57;2.78;;;8.40;99.90;;;;;;5036400;28;20447;-95
2022/11/23 09:20:19;;;;;;;8.43;2.60;;;8.40;99.90;;;;;;5054103;28;20206;-93
2022/11/23 09:22:51;;;;;;;9.40;2.40;;;8.40;99.90;;;;;;5053736;28;20210;-90
2022/11/23 09:25:18;;;;;;;6.63;2.40;;;8.40;99.90;;;;;;5054885;28;20260;-92
2022/11/23 09:27:47;;;;;;;7.43;2.67;;;8.40;99.90;;;;;;5054156;28;20198;-92
2022/11/23 09:30:15;;;;;;;7.13;2.40;;;8.40;99.90;;;;;;5054055;28;20217;-93
2022/11/23 09:32:43;;;;;;;10.70;2.90;;;8.40;99.90;;;;;;5054355;28;20217;-92
2022/11/23 09:35:10;;;;;;;8.83;2.40;;;8.40;99.90;;;;;;5053643;28;20234;-95
2022/11/23 09:37:38;;;;;;;4.67;2.23;;;8.50;99.90;;;;;;5054069;28;20199;-93
2022/11/23 09:40:08;;;;;;;7.67;2.20;;;8.60;99.90;;;;;;5050342;28;20210;-92
2022/11/23 09:42:52;;;;;;;7.80;2.57;;;8.70;99.90;;;;;;5053904;28;20889;-92
2022/11/23 09:45:26;;;;;;;7.47;2.47;;;8.80;99.90;;;;;;5053649;28;20207;-93
2022/11/23 09:48:23;;;;;;;12.80;3.30;;;8.70;99.90;;;;;;5057350;28;20463;-91
2022/11/23 09:50:54;;;;;;;5.33;2.80;;;8.70;99.90;;;;;;5062817;28;20197;-91
2022/11/23 09:53:24;;;;;;;5.67;2.33;;;8.80;99.90;;;;;;5055237;28;20234;-92
2022/11/23 09:55:55;;;;;;;5.70;2.13;;;8.90;99.90;;;;;;5052863;28;20233;-92
2022/11/23 09:58:25;;;;;;;8.53;2.40;;;8.90;99.90;;;;;;5061200;28;20210;-92
2022/11/23 10:01:04;;;;;;;9.70;2.57;;;9.00;99.90;;;;;;5055293;28;20538;-91
2022/11/23 10:03:36;;;;;;;6.83;2.20;;;9.00;99.90;;;;;;5060343;28;20200;-92
2022/11/23 10:06:10;;;;;;;3.97;2.00;;;8.90;99.90;;;;;;5056438;28;20578;-91
2022/11/23 10:08:44;;;;;;;5.80;2.20;;;8.90;99.90;;;;;;5056325;28;20206;-92
2022/11/23 10:11:35;;;;;;;13.97;2.63;;;9.10;99.90;;;;;;5046670;28;20194;-90
2022/11/23 10:14:15;;;;;;;6.93;2.23;;;9.00;99.90;;;;;;5051583;28;20203;-91
2022/11/23 10:16:49;;;;;;;5.73;2.67;;;9.20;99.90;;;;;;5045228;28;20587;-91
2022/11/23 10:19:25;;;;;;;5.10;2.40;;;9.20;99.90;;;;;;5046493;28;20690;-91
2022/11/23 10:22:02;;;;;;;8.60;2.70;;;9.30;99.90;;;;;;5052284;28;20198;-92
2022/11/23 10:24:34;;;;;;;4.93;2.13;;;9.20;99.90;;;;;;5054324;28;20217;-94
2022/11/23 10:27:02;;;;;;;4.27;1.80;;;9.10;99.90;;;;;;5053496;28;20210;-95
2022/11/23 10:29:31;;;;;;;4.83;1.77;;;9.10;99.90;;;;;;5053996;28;20198;-94
2022/11/23 10:31:59;;;;;;;5.43;1.80;;;9.20;99.90;;;;;;5053271;28;20205;-94
2022/11/23 10:34:43;;;;;;;5.93;2.47;;;9.30;99.90;;;;;;5061751;28;20285;-92
2022/11/23 10:37:13;;;;;;;7.60;2.03;;;9.20;99.90;;;;;;5056917;28;20222;-92
2022/11/23 10:39:40;;;;;;;4.50;1.50;;;9.20;99.90;;;;;;5051183;28;20194;-93
2022/11/23 10:42:18;;;;;;;4.33;1.70;;;9.30;99.90;;;;;;5054106;28;20237;-93
2022/11/23 10:44:46;;;;;;;2.97;1.57;;;9.50;99.90;;;;;;5057252;28;20221;-94
2022/11/23 10:47:34;;;;;;;3.80;1.57;;;9.60;99.90;;;;;;5053722;28;20215;-94
2022/11/23 10:50:03;;;;;;;4.40;1.63;;;9.50;99.90;;;;;;5057859;28;20560;-94
2022/11/23 10:52:32;;;;;;;7.70;1.87;;;9.60;99.90;;;;;;5054378;28;20238;-93
2022/11/23 10:55:01;;;;;;;4.43;1.73;;;9.60;99.90;;;;;;5054370;28;20224;-94
2022/11/23 10:57:33;;;;;;;3.57;1.67;;;9.60;99.90;;;;;;5054750;28;20214;-92
2022/11/23 11:00:03;;;;;;;6.83;1.77;;;9.70;99.90;;;;;;5054642;28;20202;-92
2022/11/23 11:02:39;;;;;;;6.63;1.93;;;9.70;99.90;;;;;;5056588;28;20660;-95
2022/11/23 11:05:28;;;;;;;10.23;1.80;;;9.70;99.90;;;;;;5054918;28;20641;-92
2022/11/23 11:07:57;;;;;;;5.40;1.73;;;9.70;99.90;;;;;;5055344;28;20206;-94
2022/11/23 11:10:36;;;;;;;7.87;2.33;;;9.80;99.90;;;;;;5054350;28;20211;-91
2022/11/23 11:13:20;;;;;;;4.83;1.60;;;9.70;99.90;;;;;;5056015;28;20198;-94
2022/11/23 11:15:52;;;;;;;7.35;2.38;;;9.80;99.90;;;;;;5051717;28;20809;-92
2022/11/23 11:18:20;;;;;;;7.63;1.90;;;9.90;99.90;;;;;;5053159;28;20238;-91
2022/11/23 11:20:57;;;;;;;5.67;1.67;;;10.00;99.90;;;;;;5052670;28;20226;-93
2022/11/23 11:23:24;;;;;;;5.40;1.80;;;10.10;99.90;;;;;;5053255;28;20202;-92
2022/11/23 11:26:04;;;;;;;9.03;2.30;;;10.00;99.90;;;;;;5053003;28;20210;-92
2022/11/23 11:28:36;;;;;;;4.83;1.60;;;10.00;99.90;;;;;;5052929;28;20573;-93
2022/11/23 11:31:27;;;;;;;6.07;1.80;;;10.20;99.90;;;;;;5068649;28;20199;-90
2022/11/23 11:34:02;;;;;;;7.17;1.87;;;10.30;99.90;;;;;;5058054;28;20198;-91
2022/11/23 11:36:38;;;;;;;4.77;1.57;;;10.30;99.90;;;;;;5057036;28;20233;-90
2022/11/23 11:39:14;;;;;;;5.30;1.50;;;10.40;99.90;;;;;;5057360;28;20202;-92
2022/11/23 11:41:43;;;;;;;5.50;2.00;;;10.40;99.90;;;;;;5057493;28;20208;-95
2022/11/23 11:44:17;;;;;;;4.20;1.50;;;10.30;99.90;;;;;;5057044;28;20642;-94
2022/11/23 11:46:49;;;;;;;7.40;1.90;;;10.40;99.90;;;;;;5057257;28;20210;-94
2022/11/23 11:49:21;;;;;;;6.10;1.40;;;10.50;99.90;;;;;;5061666;28;20217;-92
2022/11/23 11:51:55;;;;;;;10.47;1.93;;;10.50;99.90;;;;;;5044805;28;20204;-92
2022/11/23 11:54:27;;;;;;;4.10;1.40;;;10.50;99.90;;;;;;5056834;28;20231;-94
2022/11/23 11:57:00;;;;;;;7.60;1.90;;;10.50;99.90;;;;;;5056174;28;20227;-92
2022/11/23 11:59:30;;;;;;;4.93;2.13;;;10.40;99.90;;;;;;5055949;28;20285;-92
2022/11/23 12:02:07;;;;;;;4.17;1.77;;;10.20;99.90;;;;;;5055909;28;20191;-91
2022/11/23 12:04:39;;;;;;;6.27;1.83;;;10.00;99.90;;;;;;5055567;28;20199;-93
2022/11/23 12:07:16;;;;;;;7.13;2.00;;;9.90;99.90;;;;;;5056122;28;20209;-93
2022/11/23 12:09:46;;;;;;;4.83;1.50;;;9.80;99.90;;;;;;5056734;28;20210;-93
2022/11/23 12:12:16;;;;;;;3.63;1.33;;;9.70;99.90;;;;;;5047034;28;20214;-93
2022/11/23 12:14:45;;;;;;;4.97;1.88;;;9.60;99.90;;;;;;5069613;28;20435;-93
2022/11/23 12:17:29;;;;;;;10.23;2.60;;;9.50;99.90;;;;;;5064144;28;20226;-93
2022/11/23 12:20:04;;;;;;;9.97;2.10;;;9.40;99.90;;;;;;5070288;28;20206;-93
2022/11/23 12:22:45;;;;;;;6.17;1.90;;;9.50;99.90;;;;;;5042788;28;20205;-93
2022/11/23 12:25:22;;;;;;;7.10;2.20;;;9.40;99.90;;;;;;5056351;28;20314;-91
2022/11/23 12:28:01;;;;;;;5.50;2.00;;;9.30;99.90;;;;;;5056416;28;20210;-93
2022/11/23 12:30:34;;;;;;;4.80;1.57;;;9.30;99.90;;;;;;5056232;28;20209;-94
2022/11/23 12:33:16;;;;;;;6.60;2.10;;;9.30;99.90;;;;;;5056656;28;20202;-93
2022/11/23 12:36:00;;;;;;;5.57;2.07;;;9.20;99.90;;;;;;5056138;28;20207;-93
2022/11/23 12:38:38;;;;;;;7.80;2.20;;;9.10;99.90;;;;;;5056243;28;20268;-94
2022/11/23 12:41:30;;;;;;;5.03;1.87;;;9.20;99.90;;;;;;5054424;28;20665;-93
2022/11/23 12:44:51;;;;;;;5.97;1.90;;;9.20;99.90;;;;;;5069552;28;20307;-93
2022/11/23 12:47:32;;;;;;;4.87;2.00;;;9.10;99.90;;;;;;5029937;28;20218;-90
2022/11/23 12:50:09;;;;;;;4.40;1.67;;;9.10;99.90;;;;;;5062613;28;20211;-91
2022/11/23 12:52:53;;;;;;;2.93;1.73;;;9.00;99.90;;;;;;5057513;28;20279;-91
2022/11/23 12:55:25;;;;;;;4.70;1.90;;;8.90;99.90;;;;;;5057442;28;20571;-90
2022/11/23 12:57:59;;;;;;;5.83;2.10;;;8.90;99.90;;;;;;5053670;28;20226;-91
2022/11/23 13:00:30;;;;;;;5.73;1.73;;;9.00;99.90;;;;;;5054160;28;20206;-90
2022/11/23 13:03:49;;;;;;;5.53;1.80;;;8.90;99.90;;;;;;5054121;28;20217;-91
2022/11/23 13:07:08;;;;;;;5.00;2.00;;;8.80;99.90;;;;;;5064036;28;20206;-93